Funds performance table by strategy

help icon
fund name 1 mth 3 mth 12 mthsort icon ytd Inception Net assets Return Date
Zurich WS Pension-Capital Stable 0% 4% 10% 4% 7% 0M 2015-03-31
Transamerica Large Cap Value I2 -1% 2% 10% 2% 15% - 2015-03-31
PIMCO Global Multi-Asset Adm 0% 4% 10% 4% 2% - 2015-03-31
SIM Inflation Plus B6 1% 3% 10% 3% 10% 4295M 2015-03-31
PRIMAstrategia Europa PMI A.P. Y 1% 0% 10% 3% -1% 24M 2013-05-31
Eurizon EasyFund Bd Emg Mkts in LC Z 1% 7% 10% 7% 0% 1136M 2015-03-31
HSBC GIF Glb Emerg Mkts Inv Grade Bd Z 2% 7% 10% 7% 0% 120M 2012-02-29
Carve 1 3% 3% 10% 2% 0% 4295M 2015-02-28
Parvest Equity World Cons Durables P C -1% 4% 10% 0% 15% 131M 2014-07-31
Lyxor Quantitative Fd ARMA 8 I GBP 0% 5% 10% 5% 5% 218M 2015-03-31
Itaú Flexprev XVII FIC FI RF 0% 2% 10% 2% 9% 4295M 2015-03-31
AZ Fd1 Instl Trgt A-AZ Fd Inc 1% 7% 10% 7% 9% 132M 2015-03-31
Pictet CH I-Swiss Equities J CHF 3% 3% 10% 3% 16% 932M 2015-03-31
CFS FC W PSup-Perpetual W Cons Growth 1% 1% 10% 5% 0% 28M 2013-07-31
Pictet CH I-Swiss Equities-J dy CHF 3% 3% 10% 3% 5% 932M 2015-03-31
Argo Pan European Div Inc I GBP Inc 0% 0% 10% 2% 6% 4M 2014-05-31
Western Asset Inflation Idxd Plus Bd FI -1% 0% 10% 0% 7% - 2012-03-31
Planetarium - Anthilia Blue B 1% 11% 10% 11% 2% 49M 2015-03-31
Advance Moderate Multi-Blend W 0% 0% 10% 6% 6% - 2013-08-31
ComStage MSCI North America TRN ETF -1% 0% 10% 0% 16% 309M 2015-03-31
Polaris GEO Equity Global III -8% -6% 10% 6% 7% - 2012-10-31
Prescient Optimised Growth FoF B3 1% 3% 10% 2% 11% 0M 2015-02-28
Keen Onyx Fund LP 1% 4% 10% 4% 8% - 2015-03-31
BNPP L1 Equity Europe Materials I 1% -4% 10% -5% -1% 12M 2013-05-31
Graviton SCI Capital Growth B1 0% 3% 10% 3% 11% 729M 2015-03-31
Fairtree Flexible Balanced Prescient B3 0% 4% 10% 4% 11% 54M 2015-03-31
GAM Star Barclays Divers Alts Ins EUR 0% 5% 10% 5% 5% 68M 2015-03-31
MiraeAsset RP Grw SM Cap40 Fdr BdBal 1 C 2% 6% 10% 6% 10% 420M 2015-03-31
Zurich Bursátil 90 I 0% 4% 10% 4% 7% 4295M 2015-03-31
db x-trackers MSCI ACFarEastexJn(DR)2C€H 1% 5% 10% 5% 10% 37M 2015-03-31

All our data is licensed from Morningstar UK Ltd. Important legal information